Time;durP1;ratioP1;P1;durP2;ratioP2;P2;SDS_P1;SDS_P2;PMS_P1;PMS_P2;Temp;Humidity;BMP_temperature;BMP_pressure;BME280_temperature;BME280_humidity;BME280_pressure;Samples;Min_cycle;Max_cycle;Signal;HPM_P1;HPM_P2
2022/05/31 00:00:39;;;;;;;3.13;2.80;;;13.40;83.40;;;;;;5113818;28;20450;-58
2022/05/31 00:03:07;;;;;;;4.73;2.53;;;13.30;83.60;;;;;;5113719;28;20476;-58
2022/05/31 00:05:35;;;;;;;3.47;3.17;;;13.20;84.30;;;;;;5114106;28;20442;-58
2022/05/31 00:08:05;;;;;;;3.80;3.40;;;13.10;84.90;;;;;;5113844;28;20446;-58
2022/05/31 00:10:32;;;;;;;3.13;2.77;;;13.10;85.40;;;;;;5114055;28;20941;-59
2022/05/31 00:13:00;;;;;;;3.10;2.80;;;13.10;86.80;;;;;;5113727;28;20470;-58
2022/05/31 00:15:28;;;;;;;3.47;3.17;;;13.20;87.00;;;;;;5113713;28;20438;-58
2022/05/31 00:17:56;;;;;;;3.27;2.97;;;13.10;85.90;;;;;;5114083;28;20450;-58
2022/05/31 00:20:23;;;;;;;5.73;2.90;;;13.20;87.90;;;;;;5113637;28;20466;-58
2022/05/31 00:22:51;;;;;;;3.57;3.27;;;13.20;87.90;;;;;;5113927;28;20910;-58
2022/05/31 00:25:20;;;;;;;3.93;2.57;;;13.10;87.30;;;;;;5113540;28;20496;-58
2022/05/31 00:27:48;;;;;;;3.27;2.93;;;13.00;87.40;;;;;;5113671;28;20451;-58
2022/05/31 00:30:16;;;;;;;3.20;2.93;;;12.90;88.00;;;;;;5113548;28;20458;-58
2022/05/31 00:32:46;;;;;;;4.33;3.03;;;12.70;88.60;;;;;;5113700;28;20488;-58
2022/05/31 00:35:17;;;;;;;3.40;3.07;;;12.70;89.50;;;;;;5113908;28;20403;-59
2022/05/31 00:37:48;;;;;;;2.87;2.60;;;12.60;90.00;;;;;;5114156;28;20454;-58
2022/05/31 00:40:17;;;;;;;3.13;2.93;;;12.70;90.40;;;;;;5113453;28;20970;-58
2022/05/31 00:42:54;;;;;;;3.00;2.80;;;12.80;90.50;;;;;;5113385;28;20478;-58
2022/05/31 00:45:26;;;;;;;3.47;3.17;;;12.90;90.80;;;;;;5114146;28;20413;-58
2022/05/31 00:47:54;;;;;;;3.80;2.77;;;12.90;91.20;;;;;;5113336;28;20466;-59
2022/05/31 00:50:28;;;;;;;2.97;2.77;;;12.90;90.80;;;;;;5113368;28;20518;-58
2022/05/31 00:52:59;;;;;;;3.03;2.77;;;12.90;90.40;;;;;;5113460;28;20477;-58
2022/05/31 00:55:32;;;;;;;3.20;2.90;;;12.80;90.90;;;;;;5113279;28;20991;-58
2022/05/31 00:58:07;;;;;;;3.13;2.83;;;12.60;91.50;;;;;;5114449;28;20512;-58
2022/05/31 01:00:36;;;;;;;4.37;3.30;;;12.70;91.90;;;;;;5116096;28;20430;-58
2022/05/31 01:03:05;;;;;;;4.00;2.97;;;12.50;91.70;;;;;;5116924;28;20564;-58
2022/05/31 01:05:34;;;;;;;3.10;2.90;;;12.60;92.30;;;;;;5117014;28;20443;-58
2022/05/31 01:08:01;;;;;;;3.90;3.50;;;12.60;92.30;;;;;;5117239;28;20443;-58
2022/05/31 01:10:29;;;;;;;3.00;2.80;;;12.60;92.50;;;;;;5117108;28;20469;-58
2022/05/31 01:12:56;;;;;;;3.27;2.97;;;12.70;92.20;;;;;;5117014;28;20474;-58
2022/05/31 01:15:25;;;;;;;3.57;3.10;;;12.40;92.30;;;;;;5117148;28;20427;-58
2022/05/31 01:17:52;;;;;;;2.87;2.63;;;12.30;92.90;;;;;;5116749;27;20442;-58
2022/05/31 01:20:23;;;;;;;3.50;3.20;;;12.20;93.00;;;;;;5116975;28;20514;-58
2022/05/31 01:22:52;;;;;;;5.50;3.10;;;12.20;93.20;;;;;;5116582;28;20463;-58
2022/05/31 01:25:54;;;;;;;4.47;3.50;;;12.10;93.40;;;;;;5116797;28;20499;-58
2022/05/31 01:28:35;;;;;;;5.70;3.20;;;12.00;93.30;;;;;;5100497;28;20871;-58
2022/05/31 01:31:09;;;;;;;4.73;3.50;;;12.10;93.90;;;;;;5116864;28;20419;-58
2022/05/31 01:33:43;;;;;;;3.70;3.27;;;12.20;94.30;;;;;;5116832;28;20419;-58
2022/05/31 01:36:16;;;;;;;3.40;3.10;;;12.30;94.60;;;;;;5117074;28;20457;-58
2022/05/31 01:38:48;;;;;;;3.60;3.30;;;12.40;94.60;;;;;;5116665;28;20814;-59
2022/05/31 01:41:20;;;;;;;4.30;3.23;;;12.40;94.80;;;;;;5116656;28;20450;-58
2022/05/31 01:43:50;;;;;;;2.93;2.63;;;12.30;94.80;;;;;;5116483;28;21044;-59
2022/05/31 01:46:23;;;;;;;3.43;3.13;;;12.40;94.70;;;;;;5116011;28;20474;-58
2022/05/31 01:48:52;;;;;;;3.40;3.03;;;12.20;94.80;;;;;;5116384;28;20447;-58
2022/05/31 01:51:21;;;;;;;3.50;3.20;;;12.20;95.00;;;;;;5116084;28;20953;-58
2022/05/31 01:53:49;;;;;;;3.40;3.10;;;12.10;94.80;;;;;;5116366;28;20465;-58
2022/05/31 01:56:16;;;;;;;3.43;3.13;;;12.00;95.20;;;;;;5115861;28;20534;-58
2022/05/31 01:58:48;;;;;;;7.37;3.37;;;11.80;95.40;;;;;;5116218;28;20849;-58
2022/05/31 02:01:16;;;;;;;4.17;3.53;;;12.00;95.80;;;;;;5116249;28;20779;-58
2022/05/31 02:03:45;;;;;;;3.70;3.33;;;12.10;96.10;;;;;;5115787;28;20478;-58
2022/05/31 02:06:29;;;;;;;6.53;3.63;;;12.20;96.20;;;;;;5115764;28;20452;-58
2022/05/31 02:08:57;;;;;;;3.73;3.40;;;12.20;95.70;;;;;;5116096;28;20454;-58
2022/05/31 02:11:24;;;;;;;4.20;3.90;;;12.20;96.40;;;;;;5115459;28;20492;-58
2022/05/31 02:13:52;;;;;;;3.13;2.83;;;12.30;96.30;;;;;;5116117;28;20507;-58
2022/05/31 02:16:22;;;;;;;4.00;3.57;;;12.20;95.90;;;;;;5115953;28;20812;-59
2022/05/31 02:21:36;;;;;;;4.23;3.80;;;11.90;97.20;;;;;;5115712;28;20490;-58
2022/05/31 02:24:09;;;;;;;3.33;2.93;;;12.00;97.00;;;;;;5115365;28;20481;-58
2022/05/31 02:26:37;;;;;;;3.73;3.23;;;12.00;97.30;;;;;;5115304;28;20500;-58
2022/05/31 02:29:05;;;;;;;3.50;3.20;;;11.90;96.80;;;;;;5115625;28;20498;-58
2022/05/31 02:31:32;;;;;;;3.23;2.93;;;11.70;97.20;;;;;;5115285;28;20898;-58
2022/05/31 02:34:00;;;;;;;4.10;3.60;;;11.60;97.30;;;;;;5115520;28;20453;-58
2022/05/31 02:36:28;;;;;;;5.10;3.97;;;11.60;97.70;;;;;;5115526;28;20443;-58
2022/05/31 02:38:56;;;;;;;4.47;3.40;;;11.80;97.70;;;;;;5115086;28;20863;-58
2022/05/31 02:41:24;;;;;;;3.13;2.73;;;11.80;97.60;;;;;;5115073;28;20482;-58
2022/05/31 02:43:52;;;;;;;5.67;3.03;;;11.70;97.70;;;;;;5115094;28;21015;-58
2022/05/31 02:46:19;;;;;;;3.40;3.10;;;11.70;98.40;;;;;;5114810;28;20455;-58
2022/05/31 02:48:46;;;;;;;3.97;3.50;;;11.90;98.60;;;;;;5115655;28;20470;-58
2022/05/31 02:51:13;;;;;;;3.67;3.37;;;11.90;98.10;;;;;;5115213;28;20446;-58
2022/05/31 02:53:41;;;;;;;3.60;3.30;;;11.80;98.20;;;;;;5114998;28;20446;-59
2022/05/31 02:56:10;;;;;;;3.83;3.53;;;11.50;98.70;;;;;;5115009;28;20492;-58
2022/05/31 02:58:38;;;;;;;4.43;3.23;;;11.30;98.90;;;;;;5114693;28;21044;-58
2022/05/31 03:01:20;;;;;;;3.13;2.83;;;11.20;98.90;;;;;;5115099;28;20530;-58
2022/05/31 03:03:47;;;;;;;3.40;3.20;;;11.30;99.10;;;;;;5114948;28;20472;-58
2022/05/31 03:06:14;;;;;;;3.20;2.90;;;11.40;99.50;;;;;;5114815;28;20449;-58
2022/05/31 03:08:41;;;;;;;3.33;3.03;;;11.40;99.10;;;;;;5114849;28;20502;-58
2022/05/31 03:11:14;;;;;;;3.57;3.10;;;11.50;99.60;;;;;;5114584;28;20446;-58
2022/05/31 03:13:43;;;;;;;3.87;3.57;;;11.40;99.20;;;;;;5114708;28;20457;-58
2022/05/31 03:16:11;;;;;;;4.20;3.90;;;11.30;99.00;;;;;;5114794;28;20485;-58
2022/05/31 03:18:42;;;;;;;4.13;3.23;;;11.30;99.50;;;;;;5114358;28;20548;-58
2022/05/31 03:21:13;;;;;;;6.40;3.40;;;11.30;99.70;;;;;;5114771;28;20750;-58
2022/05/31 03:23:44;;;;;;;7.13;3.73;;;11.20;99.60;;;;;;5114619;28;20466;-58
2022/05/31 03:26:16;;;;;;;3.90;3.40;;;11.00;99.60;;;;;;5114175;27;20500;-58
2022/05/31 03:28:44;;;;;;;5.10;3.77;;;11.10;99.90;;;;;;5114545;28;20473;-58
2022/05/31 03:31:11;;;;;;;3.63;3.33;;;11.10;99.90;;;;;;5114543;28;20439;-58
2022/05/31 03:33:39;;;;;;;3.80;3.50;;;11.00;99.90;;;;;;5114156;28;20470;-58
2022/05/31 03:36:06;;;;;;;3.57;3.27;;;10.90;99.90;;;;;;5114415;28;20497;-58
2022/05/31 03:38:33;;;;;;;4.10;3.50;;;10.90;99.90;;;;;;5114077;28;20470;-58
2022/05/31 03:41:01;;;;;;;3.80;3.43;;;11.20;99.90;;;;;;5114592;28;20932;-58
2022/05/31 03:43:32;;;;;;;7.03;3.40;;;11.30;99.90;;;;;;5114473;28;20461;-58
2022/05/31 03:45:59;;;;;;;3.87;3.30;;;11.40;99.90;;;;;;5114256;28;20485;-59
2022/05/31 03:48:30;;;;;;;4.27;3.00;;;11.60;99.90;;;;;;5113787;28;21034;-59
2022/05/31 03:51:01;;;;;;;3.13;2.93;;;11.60;99.90;;;;;;5114042;28;20446;-58
2022/05/31 03:53:29;;;;;;;5.53;4.17;;;11.60;99.90;;;;;;5114256;28;20438;-58
2022/05/31 03:55:56;;;;;;;3.70;3.40;;;11.60;99.90;;;;;;5114377;28;20431;-58
2022/05/31 03:58:23;;;;;;;3.93;3.53;;;11.40;99.90;;;;;;5114888;28;20449;-59
2022/05/31 04:00:52;;;;;;;4.93;4.10;;;11.40;99.90;;;;;;5114714;28;20445;-58
2022/05/31 04:03:19;;;;;;;4.20;3.90;;;11.50;99.90;;;;;;5113855;28;21002;-58
2022/05/31 04:05:47;;;;;;;3.70;3.40;;;11.60;99.90;;;;;;5113787;28;20535;-58
2022/05/31 04:08:14;;;;;;;3.77;3.47;;;11.60;99.90;;;;;;5113744;28;20447;-58
2022/05/31 04:10:44;;;;;;;3.37;3.07;;;11.60;99.90;;;;;;5113798;28;20437;-58
2022/05/31 04:13:12;;;;;;;4.03;3.03;;;11.40;99.90;;;;;;5113926;28;20442;-58
2022/05/31 04:15:39;;;;;;;3.80;3.50;;;11.50;99.90;;;;;;5113804;28;20476;-58
2022/05/31 04:18:08;;;;;;;4.40;3.43;;;11.60;99.90;;;;;;5113968;28;20538;-58
2022/05/31 04:20:37;;;;;;;3.57;3.20;;;11.60;99.90;;;;;;5114089;28;20453;-59
2022/05/31 04:25:48;;;;;;;6.03;3.77;;;11.60;99.90;;;;;;5082560;28;20561;-57
2022/05/31 04:28:16;;;;;;;3.87;3.50;;;11.70;99.90;;;;;;5113857;28;20486;-57
2022/05/31 04:30:44;;;;;;;5.30;3.50;;;11.70;99.90;;;;;;5113804;28;20442;-58
2022/05/31 04:33:13;;;;;;;3.80;3.43;;;11.80;99.90;;;;;;5113902;28;20450;-57
2022/05/31 04:35:40;;;;;;;5.20;3.70;;;11.80;99.90;;;;;;5116961;28;20435;-57
2022/05/31 04:38:07;;;;;;;4.33;3.93;;;11.90;99.90;;;;;;5117422;28;20450;-57
2022/05/31 04:40:38;;;;;;;5.87;4.77;;;11.80;99.90;;;;;;5117784;28;20549;-58
2022/05/31 04:43:05;;;;;;;4.13;3.83;;;11.70;99.90;;;;;;5117728;28;20454;-58
2022/05/31 04:45:33;;;;;;;9.10;4.03;;;11.80;99.90;;;;;;5118595;28;20472;-58
2022/05/31 04:48:00;;;;;;;4.90;4.40;;;11.80;99.90;;;;;;5117328;28;20500;-58
2022/05/31 04:50:28;;;;;;;4.70;4.30;;;11.90;99.90;;;;;;5117474;28;20534;-58
2022/05/31 04:52:55;;;;;;;8.03;5.37;;;12.00;99.90;;;;;;5117463;28;20453;-58
2022/05/31 04:55:23;;;;;;;4.43;4.03;;;12.00;99.90;;;;;;5117006;28;20496;-58
2022/05/31 04:57:50;;;;;;;5.53;4.60;;;12.10;99.90;;;;;;5117040;28;20941;-58
2022/05/31 05:00:18;;;;;;;5.70;4.90;;;12.00;99.90;;;;;;5117276;28;20473;-58
2022/05/31 05:02:45;;;;;;;6.33;5.00;;;12.10;99.90;;;;;;5116955;28;20446;-57
2022/05/31 05:05:12;;;;;;;6.30;5.53;;;12.10;99.90;;;;;;5117183;28;20513;-57
2022/05/31 05:07:41;;;;;;;6.33;5.70;;;12.10;99.90;;;;;;5116892;28;20449;-58
2022/05/31 05:10:09;;;;;;;5.97;5.37;;;12.20;99.90;;;;;;5116839;28;20462;-58
2022/05/31 05:12:37;;;;;;;6.67;5.17;;;12.20;99.90;;;;;;5117214;28;20442;-59
2022/05/31 05:15:06;;;;;;;6.30;5.17;;;12.20;99.90;;;;;;5117241;28;20453;-58
2022/05/31 05:17:33;;;;;;;8.20;5.00;;;12.20;99.90;;;;;;5116836;28;20443;-58
2022/05/31 05:20:00;;;;;;;8.63;6.17;;;12.30;99.90;;;;;;5116853;28;20458;-58
2022/05/31 05:22:29;;;;;;;6.77;5.60;;;12.30;99.90;;;;;;5116500;28;20452;-59
2022/05/31 05:24:58;;;;;;;5.30;4.80;;;12.40;99.90;;;;;;5116209;28;20551;-58
2022/05/31 05:27:25;;;;;;;8.50;5.20;;;12.50;99.90;;;;;;5116556;28;20478;-59
2022/05/31 05:32:37;;;;;;;8.87;5.90;;;12.50;99.90;;;;;;5116482;28;20430;-59
2022/05/31 05:35:05;;;;;;;9.83;5.47;;;12.60;99.90;;;;;;5116309;28;20530;-58
2022/05/31 05:37:33;;;;;;;7.70;6.20;;;12.70;99.90;;;;;;5116398;28;20453;-58
2022/05/31 05:40:01;;;;;;;6.10;4.97;;;12.80;99.90;;;;;;5116127;28;20523;-58
2022/05/31 05:42:28;;;;;;;6.10;5.40;;;12.90;99.90;;;;;;5116360;28;20443;-58
2022/05/31 05:44:56;;;;;;;7.70;5.03;;;12.80;99.90;;;;;;5116129;28;20489;-58
2022/05/31 05:47:23;;;;;;;5.47;4.90;;;13.00;99.90;;;;;;5115840;28;20905;-58
2022/05/31 05:49:50;;;;;;;5.27;4.80;;;13.20;99.90;;;;;;5116230;28;20455;-58
2022/05/31 05:52:18;;;;;;;6.20;5.10;;;13.40;99.90;;;;;;5116385;28;20446;-58
2022/05/31 05:54:45;;;;;;;5.93;4.93;;;13.60;99.90;;;;;;5116327;28;20442;-58
2022/05/31 05:57:14;;;;;;;7.97;4.97;;;13.60;99.60;;;;;;5115822;28;20458;-58
2022/05/31 05:59:41;;;;;;;5.53;4.27;;;13.50;99.40;;;;;;5116093;28;20956;-59
2022/05/31 06:02:13;;;;;;;5.43;4.93;;;13.60;98.50;;;;;;5115770;28;20450;-58
2022/05/31 06:04:46;;;;;;;8.53;5.27;;;13.60;99.90;;;;;;5115724;28;20467;-57
2022/05/31 06:07:16;;;;;;;8.97;5.77;;;13.80;99.90;;;;;;5116023;28;20427;-58
2022/05/31 06:09:50;;;;;;;8.20;4.33;;;14.00;99.90;;;;;;5115850;28;20547;-58
2022/05/31 06:12:24;;;;;;;5.37;4.87;;;14.10;99.60;;;;;;5115998;28;20437;-58
2022/05/31 06:14:59;;;;;;;7.83;5.10;;;14.30;99.00;;;;;;5116341;28;20443;-59
2022/05/31 06:17:31;;;;;;;6.80;4.60;;;14.50;99.30;;;;;;5115509;28;20462;-58
2022/05/31 06:20:01;;;;;;;7.07;4.70;;;14.60;99.60;;;;;;5115873;28;20466;-58
2022/05/31 06:22:30;;;;;;;7.13;5.27;;;14.60;98.60;;;;;;5115875;28;20442;-58
2022/05/31 06:24:59;;;;;;;5.50;4.80;;;14.80;97.80;;;;;;5114970;28;20996;-58
2022/05/31 06:27:28;;;;;;;8.30;4.93;;;15.10;97.50;;;;;;5115503;28;20500;-58
2022/05/31 06:29:55;;;;;;;7.13;4.37;;;15.10;98.20;;;;;;5115220;28;20527;-58
2022/05/31 06:32:22;;;;;;;7.50;4.23;;;15.10;96.60;;;;;;5115012;28;20457;-59
2022/05/31 06:34:49;;;;;;;6.97;4.07;;;15.10;96.10;;;;;;5115195;28;20529;-60
2022/05/31 06:37:17;;;;;;;5.13;4.37;;;15.20;96.10;;;;;;5114995;28;20456;-58
2022/05/31 06:39:46;;;;;;;5.70;4.00;;;15.40;97.00;;;;;;5115167;28;20463;-58
2022/05/31 06:42:14;;;;;;;5.30;3.40;;;15.70;96.00;;;;;;5115201;28;20479;-58
2022/05/31 06:44:44;;;;;;;5.60;4.17;;;15.90;95.30;;;;;;5115671;28;20514;-59
2022/05/31 06:47:12;;;;;;;5.60;3.50;;;15.90;94.50;;;;;;5114635;28;21007;-58
2022/05/31 06:49:40;;;;;;;6.03;4.10;;;16.10;95.50;;;;;;5115119;28;20900;-59
2022/05/31 06:57:43;;;;;;;6.53;4.50;;;16.00;95.80;;;;;;5114233;28;20403;-59
2022/05/31 07:00:15;;;;;;;4.77;3.93;;;16.20;96.20;;;;;;5114776;28;20544;-58
2022/05/31 07:02:43;;;;;;;6.43;4.57;;;16.30;95.80;;;;;;5114697;28;20808;-58
2022/05/31 07:05:12;;;;;;;5.80;5.17;;;16.40;95.50;;;;;;5114839;28;20980;-58
2022/05/31 07:07:40;;;;;;;9.10;5.10;;;16.40;94.40;;;;;;5114510;28;20445;-58
2022/05/31 07:10:08;;;;;;;7.27;4.60;;;16.80;94.80;;;;;;5114776;28;20545;-58
2022/05/31 07:12:37;;;;;;;4.63;4.10;;;17.20;94.30;;;;;;5114495;27;20500;-57
2022/05/31 07:15:05;;;;;;;12.13;4.57;;;17.00;94.00;;;;;;5114826;28;20989;-58
2022/05/31 07:17:35;;;;;;;7.00;4.17;;;17.20;93.60;;;;;;5114662;28;20897;-58
2022/05/31 07:20:03;;;;;;;7.70;4.80;;;17.80;92.60;;;;;;5114152;28;20466;-58
2022/05/31 07:22:30;;;;;;;4.67;4.00;;;18.40;92.90;;;;;;5114485;28;20447;-58
2022/05/31 07:24:57;;;;;;;7.97;4.00;;;18.60;91.80;;;;;;5113924;28;20518;-58
2022/05/31 07:27:25;;;;;;;7.40;3.90;;;18.80;92.30;;;;;;5114471;28;20540;-58
2022/05/31 07:29:52;;;;;;;5.47;4.10;;;18.80;92.20;;;;;;5114579;28;20466;-58
2022/05/31 07:32:19;;;;;;;7.10;4.60;;;18.40;92.10;;;;;;5114755;28;20931;-58
2022/05/31 07:34:50;;;;;;;4.73;3.97;;;18.30;92.70;;;;;;5114836;28;20453;-58
2022/05/31 07:37:17;;;;;;;5.23;4.43;;;18.40;92.60;;;;;;5113887;28;20427;-58
2022/05/31 07:39:44;;;;;;;5.77;4.30;;;18.80;92.20;;;;;;5114015;28;20973;-58
2022/05/31 07:42:11;;;;;;;4.77;4.17;;;19.20;92.50;;;;;;5113857;28;20942;-58
2022/05/31 07:44:39;;;;;;;5.83;4.40;;;19.20;92.30;;;;;;5114245;28;20455;-58
2022/05/31 07:47:07;;;;;;;5.03;4.47;;;19.30;92.10;;;;;;5113631;28;20478;-58
2022/05/31 07:49:34;;;;;;;4.90;3.80;;;19.30;92.40;;;;;;5113798;28;20451;-58
2022/05/31 07:52:08;;;;;;;6.20;3.90;;;20.00;92.00;;;;;;5113658;28;20893;-58
2022/05/31 07:54:35;;;;;;;7.93;4.83;;;20.60;91.00;;;;;;5114086;28;20501;-58
2022/05/31 07:57:05;;;;;;;4.47;3.60;;;21.10;90.40;;;;;;5113956;28;20450;-59
2022/05/31 07:59:32;;;;;;;6.37;4.33;;;21.60;90.10;;;;;;5113618;28;20480;-59
2022/05/31 08:01:59;;;;;;;6.53;3.60;;;21.70;85.40;;;;;;5113651;28;20431;-59
2022/05/31 08:04:27;;;;;;;4.80;3.80;;;21.80;86.00;;;;;;5113900;28;20439;-59
2022/05/31 08:06:59;;;;;;;6.10;4.00;;;21.70;84.90;;;;;;5113571;28;21023;-58
2022/05/31 08:09:28;;;;;;;5.63;3.53;;;21.90;85.20;;;;;;5116711;28;20462;-58
2022/05/31 08:11:55;;;;;;;3.43;2.50;;;22.50;83.00;;;;;;5117768;28;20481;-60
2022/05/31 08:14:23;;;;;;;2.93;2.30;;;22.30;83.00;;;;;;5118272;28;20486;-59
2022/05/31 08:16:53;;;;;;;3.00;2.27;;;22.30;78.20;;;;;;5118129;28;20438;-59
2022/05/31 08:19:22;;;;;;;4.17;2.63;;;22.70;81.00;;;;;;5117723;28;20512;-59
2022/05/31 08:21:49;;;;;;;4.57;2.13;;;22.70;75.70;;;;;;5117654;28;20457;-58
2022/05/31 08:24:16;;;;;;;2.40;2.20;;;22.70;75.00;;;;;;5117776;28;20453;-58
2022/05/31 08:26:45;;;;;;;3.57;2.33;;;23.20;77.10;;;;;;5117671;28;20482;-59
2022/05/31 08:29:12;;;;;;;4.07;2.47;;;24.00;73.40;;;;;;5117853;28;20499;-59
2022/05/31 08:31:42;;;;;;;3.93;2.33;;;23.60;72.80;;;;;;5117903;28;20442;-59
2022/05/31 08:34:09;;;;;;;4.90;2.83;;;24.20;73.30;;;;;;5118216;28;20531;-59
2022/05/31 08:36:37;;;;;;;6.07;2.37;;;23.90;70.00;;;;;;5117714;28;20445;-59
2022/05/31 08:39:04;;;;;;;2.60;2.40;;;24.00;70.20;;;;;;5117293;28;20480;-59
2022/05/31 08:41:33;;;;;;;4.77;2.83;;;24.40;71.90;;;;;;5117552;28;20448;-59
2022/05/31 08:44:33;;;;;;;2.43;2.23;;;25.20;71.90;;;;;;5117713;28;20450;-59
2022/05/31 08:47:11;;;;;;;2.13;1.93;;;24.40;66.80;;;;;;5115635;28;20490;-59
2022/05/31 08:52:48;;;;;;;3.30;2.27;;;25.30;66.40;;;;;;5117217;28;20448;-59
2022/05/31 08:58:10;;;;;;;2.90;2.60;;;25.20;64.10;;;;;;5117548;28;20402;-59
2022/05/31 09:00:43;;;;;;;2.13;1.93;;;25.20;65.90;;;;;;5117332;28;20435;-59
2022/05/31 09:03:17;;;;;;;3.43;2.07;;;25.60;68.40;;;;;;5117213;28;20510;-58
2022/05/31 09:05:51;;;;;;;3.40;2.17;;;25.60;64.90;;;;;;5117019;28;20465;-59
2022/05/31 09:08:24;;;;;;;3.30;2.17;;;25.40;62.70;;;;;;5117024;28;20427;-59
2022/05/31 09:10:57;;;;;;;2.30;2.10;;;24.90;64.10;;;;;;5117281;28;20940;-58
2022/05/31 09:13:30;;;;;;;2.77;2.50;;;24.50;65.90;;;;;;5116813;28;20457;-58
2022/05/31 09:16:04;;;;;;;3.00;2.13;;;24.20;65.30;;;;;;5116722;28;20511;-58
2022/05/31 09:18:39;;;;;;;5.93;2.60;;;25.30;69.30;;;;;;5116936;28;20476;-58
2022/05/31 09:21:16;;;;;;;2.43;1.93;;;26.30;64.70;;;;;;5115921;28;20427;-58
2022/05/31 09:23:45;;;;;;;3.87;2.03;;;26.00;61.50;;;;;;5116642;28;20529;-58
2022/05/31 09:26:29;;;;;;;2.83;2.23;;;26.10;60.90;;;;;;5116606;28;20489;-60
2022/05/31 09:29:04;;;;;;;2.60;2.00;;;26.40;61.50;;;;;;5116385;28;20466;-59
2022/05/31 09:31:44;;;;;;;3.40;1.90;;;26.10;60.20;;;;;;5116553;28;20434;-59
2022/05/31 09:34:28;;;;;;;3.43;2.13;;;25.70;62.10;;;;;;5116056;28;20465;-59
2022/05/31 09:37:06;;;;;;;2.70;2.03;;;26.60;60.50;;;;;;5116561;28;20886;-60
2022/05/31 09:39:40;;;;;;;3.50;2.00;;;27.00;59.80;;;;;;5116251;28;20477;-59
2022/05/31 09:42:18;;;;;;;2.50;2.10;;;27.90;57.90;;;;;;5116258;28;20430;-58
2022/05/31 09:44:50;;;;;;;2.83;2.10;;;27.30;57.00;;;;;;5116784;28;20454;-59
2022/05/31 09:47:23;;;;;;;7.23;2.03;;;26.80;57.00;;;;;;5116584;28;20582;-59
2022/05/31 09:49:52;;;;;;;2.97;2.00;;;26.10;56.00;;;;;;5116054;28;20535;-58
2022/05/31 09:52:23;;;;;;;4.43;2.40;;;;;;;;;;5116174;28;20538;-58
2022/05/31 09:57:58;;;;;;;2.50;2.30;;;23.70;57.90;;;;;;5116012;28;20397;-59
2022/05/31 10:00:26;;;;;;;3.73;2.53;;;24.40;58.80;;;;;;5115826;28;20458;-59
2022/05/31 10:03:08;;;;;;;2.43;2.23;;;24.90;58.10;;;;;;5115944;28;20466;-58
2022/05/31 10:05:36;;;;;;;3.70;2.20;;;25.20;59.00;;;;;;5116861;28;20466;-58
2022/05/31 10:08:04;;;;;;;2.70;2.30;;;26.20;58.00;;;;;;5116025;28;20446;-58
2022/05/31 10:10:35;;;;;;;3.60;2.10;;;26.70;57.50;;;;;;5115763;28;20453;-58
2022/05/31 10:13:08;;;;;;;4.00;2.20;;;26.30;55.90;;;;;;5115641;28;20438;-59
2022/05/31 10:15:45;;;;;;;3.17;2.20;;;25.90;57.40;;;;;;5115561;28;20972;-59
2022/05/31 10:18:15;;;;;;;2.77;2.57;;;;;;;;;;5115366;28;20433;-59
2022/05/31 10:20:54;;;;;;;3.67;2.27;;;24.40;58.70;;;;;;5115756;28;20485;-59
2022/05/31 10:23:23;;;;;;;3.50;2.30;;;24.20;58.30;;;;;;5115533;28;20990;-59
2022/05/31 10:25:53;;;;;;;2.23;2.03;;;24.50;58.10;;;;;;5115193;28;20482;-59
2022/05/31 10:28:29;;;;;;;5.10;2.17;;;24.30;59.10;;;;;;5115529;28;20443;-59
2022/05/31 10:31:04;;;;;;;3.37;2.70;;;23.90;58.30;;;;;;5115270;28;20430;-59
2022/05/31 10:33:34;;;;;;;4.40;2.53;;;23.80;61.80;;;;;;5115140;28;20441;-59
2022/05/31 10:36:09;;;;;;;4.57;2.53;;;23.60;60.40;;;;;;5115687;28;20435;-59
2022/05/31 10:38:41;;;;;;;5.67;2.73;;;23.90;63.30;;;;;;5115488;28;20568;-62
2022/05/31 10:41:11;;;;;;;4.23;2.70;;;24.30;63.90;;;;;;5114654;28;20431;-58
2022/05/31 10:43:42;;;;;;;2.67;2.40;;;24.80;63.90;;;;;;5115149;28;20451;-58
2022/05/31 10:46:13;;;;;;;3.20;2.37;;;25.20;62.20;;;;;;5114991;27;20508;-58
2022/05/31 10:48:47;;;;;;;3.27;2.37;;;25.90;64.80;;;;;;5114898;28;20525;-59
2022/05/31 10:51:32;;;;;;;3.80;3.10;;;26.20;62.00;;;;;;5115086;28;20434;-59
2022/05/31 10:54:32;;;;;;;4.77;2.50;;;26.10;61.20;;;;;;5114770;28;20434;-59
2022/05/31 10:57:12;;;;;;;5.27;3.33;;;26.40;60.40;;;;;;5115165;28;20525;-59
2022/05/31 10:59:46;;;;;;;3.43;3.03;;;26.30;60.00;;;;;;5114751;28;20447;-59
2022/05/31 11:02:45;;;;;;;5.63;3.10;;;26.50;60.00;;;;;;5114574;28;20427;-59
2022/05/31 11:05:15;;;;;;;6.00;2.80;;;26.70;60.50;;;;;;5114537;28;20463;-60
2022/05/31 11:11:28;;;;;;;3.47;2.40;;;27.10;59.40;;;;;;5114793;28;20859;-60
2022/05/31 11:13:43;;;;;;;3.80;2.77;;;26.90;58.20;;;;;;5096738;28;20435;-60
2022/05/31 11:16:18;;;;;;;4.50;2.50;;;27.60;57.10;;;;;;5115257;28;20465;-60
2022/05/31 11:19:08;;;;;;;5.37;3.23;;;26.60;58.10;;;;;;5114324;28;20972;-60
2022/05/31 11:21:47;;;;;;;2.70;2.50;;;26.60;57.30;;;;;;5114289;28;20922;-59
2022/05/31 11:24:38;;;;;;;3.90;2.43;;;26.90;56.40;;;;;;5114260;28;20454;-59
2022/05/31 11:27:33;;;;;;;3.60;2.20;;;27.40;57.20;;;;;;5114259;28;20510;-59
2022/05/31 11:30:17;;;;;;;2.77;2.30;;;27.70;57.10;;;;;;5114035;28;20853;-59
2022/05/31 11:33:02;;;;;;;2.73;2.50;;;27.70;54.80;;;;;;5113984;28;20425;-59
2022/05/31 11:35:53;;;;;;;3.60;2.43;;;27.60;54.30;;;;;;5114025;28;20465;-59
2022/05/31 11:38:27;;;;;;;4.70;3.37;;;26.70;54.40;;;;;;5114884;28;20508;-59
2022/05/31 11:41:03;;;;;;;3.40;2.30;;;27.20;53.90;;;;;;5114098;28;20429;-59
2022/05/31 11:44:00;;;;;;;6.47;2.37;;;26.90;53.80;;;;;;5113788;28;20851;-59
2022/05/31 11:46:35;;;;;;;3.93;2.33;;;27.60;54.10;;;;;;5113950;28;20501;-59
2022/05/31 11:49:06;;;;;;;2.50;2.30;;;27.70;53.10;;;;;;5114125;28;20478;-59
2022/05/31 11:52:02;;;;;;;3.23;2.00;;;27.60;52.90;;;;;;5114218;28;20508;-59
2022/05/31 11:58:06;;;;;;;2.43;2.07;;;27.60;52.40;;;;;;5114311;28;20751;-59
2022/05/31 12:00:40;;;;;;;4.93;2.53;;;27.50;51.80;;;;;;5114154;28;20430;-59
2022/05/31 12:03:14;;;;;;;4.50;2.63;;;27.50;51.90;;;;;;5113942;28;20438;-59
2022/05/31 12:05:47;;;;;;;3.70;2.60;;;27.90;52.30;;;;;;5114082;28;20450;-59
2022/05/31 12:08:25;;;;;;;5.97;2.33;;;28.10;51.40;;;;;;5113343;28;20822;-59
2022/05/31 12:10:59;;;;;;;2.90;2.10;;;28.70;50.50;;;;;;5113613;28;20446;-59
2022/05/31 12:13:28;;;;;;;3.73;2.50;;;28.80;51.60;;;;;;5113911;28;20548;-60
2022/05/31 12:15:57;;;;;;;3.20;2.67;;;28.40;50.20;;;;;;5113572;28;20461;-59
2022/05/31 12:18:33;;;;;;;4.60;2.30;;;27.10;51.10;;;;;;5113303;28;20446;-59
2022/05/31 12:21:10;;;;;;;10.70;2.53;;;26.20;51.60;;;;;;5113437;28;20431;-59
2022/05/31 12:23:44;;;;;;;2.33;2.17;;;27.10;52.10;;;;;;5113923;28;20479;-60
2022/05/31 12:26:23;;;;;;;2.70;2.30;;;27.40;50.80;;;;;;5113627;28;20482;-59
2022/05/31 12:28:54;;;;;;;3.57;2.30;;;26.00;51.20;;;;;;5114685;28;20463;-59
2022/05/31 12:31:25;;;;;;;3.83;2.07;;;26.00;52.10;;;;;;5113517;28;20437;-59
2022/05/31 12:33:55;;;;;;;2.93;2.10;;;25.70;51.70;;;;;;5113668;28;20431;-59
2022/05/31 12:36:24;;;;;;;2.90;2.50;;;26.00;51.60;;;;;;5113694;28;20526;-59
2022/05/31 12:39:06;;;;;;;3.80;2.40;;;25.90;51.00;;;;;;5113365;28;20557;-59
2022/05/31 12:41:41;;;;;;;3.00;2.23;;;25.90;51.20;;;;;;5113676;28;20767;-59
2022/05/31 12:44:14;;;;;;;2.77;2.40;;;25.90;51.90;;;;;;5113162;28;20541;-59
2022/05/31 12:46:45;;;;;;;2.77;2.20;;;25.80;51.40;;;;;;5113033;28;20829;-59
2022/05/31 12:49:26;;;;;;;5.03;2.60;;;26.30;52.10;;;;;;5113067;28;20463;-59
2022/05/31 12:55:51;;;;;;;3.07;2.30;;;25.60;51.40;;;;;;5081888;28;20537;-59
2022/05/31 12:58:47;;;;;;;3.83;2.53;;;25.40;52.30;;;;;;5117215;28;20454;-59
2022/05/31 13:01:46;;;;;;;2.70;2.10;;;26.40;52.30;;;;;;5117162;28;20776;-59
2022/05/31 13:04:28;;;;;;;3.90;2.57;;;26.80;51.00;;;;;;5071534;28;20544;-59
2022/05/31 13:07:13;;;;;;;3.17;2.17;;;26.90;51.10;;;;;;5116725;28;20983;-59
2022/05/31 13:09:43;;;;;;;2.63;2.10;;;27.10;50.70;;;;;;5116736;28;20463;-59
2022/05/31 13:20:56;;;;;;;4.13;2.37;;;27.20;49.90;;;;;;5116736;28;20403;-59
2022/05/31 13:23:27;;;;;;;2.50;1.90;;;26.90;49.00;;;;;;5116904;28;20426;-59
2022/05/31 13:25:58;;;;;;;2.87;2.10;;;26.60;49.60;;;;;;5116370;28;20438;-59
2022/05/31 13:28:29;;;;;;;2.83;2.20;;;25.60;49.40;;;;;;5116659;28;20539;-58
2022/05/31 13:31:03;;;;;;;2.60;2.40;;;25.40;49.60;;;;;;5116671;28;20767;-59
2022/05/31 13:33:32;;;;;;;2.20;2.10;;;25.30;50.10;;;;;;5116578;28;20516;-60
2022/05/31 13:36:05;;;;;;;4.13;2.30;;;25.30;49.30;;;;;;5116519;28;20533;-60
2022/05/31 13:38:38;;;;;;;3.97;2.30;;;25.20;50.10;;;;;;5117052;28;20486;-60
2022/05/31 13:41:09;;;;;;;3.03;2.27;;;25.60;51.50;;;;;;5116270;28;20434;-59
2022/05/31 13:43:40;;;;;;;2.63;2.43;;;25.20;48.90;;;;;;5116219;28;20827;-60
2022/05/31 13:46:25;;;;;;;3.70;2.23;;;25.10;50.40;;;;;;5115913;28;20474;-60
2022/05/31 13:48:54;;;;;;;2.50;2.30;;;25.10;50.40;;;;;;5116568;28;20447;-60
2022/05/31 13:51:24;;;;;;;2.37;1.90;;;24.90;49.90;;;;;;5116128;28;20867;-59